createdAt,value
2019-05-23T00:01:57.312Z,15.72
2019-05-23T00:04:44.205Z,20.23
2019-05-23T00:07:12.521Z,16.00
2019-05-23T00:09:39.189Z,15.85
2019-05-23T00:12:42.005Z,15.23
2019-05-23T00:15:18.813Z,13.98
2019-05-23T00:17:45.327Z,12.85
2019-05-23T00:20:11.887Z,12.90
2019-05-23T00:22:38.888Z,13.35
2019-05-23T00:25:07.256Z,12.88
2019-05-23T00:27:33.594Z,14.05
2019-05-23T00:29:59.863Z,14.30
2019-05-23T00:32:37.183Z,13.58
2019-05-23T00:35:05.938Z,13.35
2019-05-23T00:37:33.964Z,12.78
2019-05-23T00:40:00.436Z,11.78
2019-05-23T00:42:29.088Z,15.40
2019-05-23T00:44:56.852Z,17.55
2019-05-23T00:47:24.140Z,13.88
2019-05-23T00:49:50.488Z,12.58
2019-05-23T00:52:17.243Z,13.65
2019-05-23T00:54:45.035Z,15.15
2019-05-23T00:57:12.375Z,12.25
2019-05-23T00:59:38.731Z,14.35
2019-05-23T01:02:05.517Z,13.95
2019-05-23T01:04:33.747Z,13.43
2019-05-23T01:07:00.589Z,14.55
2019-05-23T01:09:28.136Z,11.15
2019-05-23T01:11:55.050Z,11.33
2019-05-23T01:14:21.824Z,13.58
2019-05-23T01:16:48.927Z,11.70
2019-05-23T01:19:17.284Z,10.03
2019-05-23T01:21:51.532Z,11.18
2019-05-23T01:24:28.630Z,13.72
2019-05-23T01:26:57.669Z,10.95
2019-05-23T01:29:25.980Z,11.00
2019-05-23T01:31:56.948Z,9.98
2019-05-23T01:34:25.108Z,12.82
2019-05-23T01:36:51.870Z,11.03
2019-05-23T01:39:18.686Z,13.20
2019-05-23T01:41:46.196Z,11.90
2019-05-23T01:44:13.674Z,14.68
2019-05-23T01:46:41.023Z,13.30
2019-05-23T01:49:07.832Z,15.80
2019-05-23T01:51:34.286Z,13.28
2019-05-23T01:54:00.662Z,15.68
2019-05-23T01:56:28.020Z,13.90
2019-05-23T01:58:54.549Z,14.98
2019-05-23T02:01:21.739Z,14.33
2019-05-23T02:03:48.402Z,13.95
2019-05-23T02:06:15.217Z,13.55
2019-05-23T02:08:42.089Z,15.55
2019-05-23T02:11:10.343Z,14.98
2019-05-23T02:13:37.020Z,13.98
2019-05-23T02:16:04.374Z,13.18
2019-05-23T02:18:30.658Z,14.50
2019-05-23T02:20:57.941Z,15.05
2019-05-23T02:23:25.421Z,14.18
2019-05-23T02:25:53.063Z,13.65
2019-05-23T02:28:19.971Z,14.40
2019-05-23T02:30:46.872Z,15.08
2019-05-23T02:33:13.320Z,12.70
2019-05-23T02:35:39.990Z,14.90
2019-05-23T02:38:11.046Z,14.07
2019-05-23T02:40:45.696Z,13.43
2019-05-23T02:46:07.675Z,15.28
2019-05-23T02:48:37.548Z,14.15
2019-05-23T02:51:07.730Z,13.80
2019-05-23T02:53:34.820Z,15.43
2019-05-23T02:56:05.097Z,15.00
2019-05-23T02:58:43.241Z,12.40
2019-05-23T03:01:21.859Z,16.20
2019-05-23T03:03:52.050Z,16.32
2019-05-23T03:06:20.598Z,17.17
2019-05-23T03:08:47.930Z,15.85
2019-05-23T03:11:29.265Z,16.95
2019-05-23T03:13:59.063Z,15.88
2019-05-23T03:16:27.305Z,16.75
2019-05-23T03:18:57.438Z,15.32
2019-05-23T03:21:26.586Z,17.02
2019-05-23T03:23:55.430Z,16.80
2019-05-23T03:26:39.308Z,17.27
2019-05-23T03:29:06.101Z,19.12
2019-05-23T03:31:35.800Z,22.93
2019-05-23T03:34:03.263Z,23.60
2019-05-23T03:36:30.130Z,20.02
2019-05-23T03:38:56.403Z,22.35
2019-05-23T03:41:23.370Z,23.00
2019-05-23T03:43:49.613Z,22.80
2019-05-23T03:46:19.622Z,24.55
2019-05-23T03:48:46.764Z,21.05
2019-05-23T03:51:13.921Z,19.05
2019-05-23T03:53:40.914Z,18.85
2019-05-23T03:56:07.202Z,20.32
2019-05-23T03:58:33.752Z,23.50
2019-05-23T04:01:02.131Z,20.23
2019-05-23T04:03:29.046Z,20.72
2019-05-23T04:05:56.837Z,20.50
2019-05-23T04:08:24.045Z,25.35
2019-05-23T04:10:52.175Z,19.87
2019-05-23T04:13:19.119Z,25.23
2019-05-23T04:15:45.607Z,23.25
2019-05-23T04:18:12.069Z,24.07
2019-05-23T04:20:38.432Z,21.27
2019-05-23T04:23:05.219Z,22.48
2019-05-23T04:25:31.580Z,21.25
2019-05-23T04:27:58.349Z,23.00
2019-05-23T04:30:25.162Z,26.80
2019-05-23T04:32:51.852Z,22.02
2019-05-23T04:35:18.544Z,21.68
2019-05-23T04:37:45.353Z,21.33
2019-05-23T04:40:12.634Z,23.30
2019-05-23T04:42:39.432Z,21.73
2019-05-23T04:45:06.769Z,26.45
2019-05-23T04:47:33.194Z,25.05
2019-05-23T04:49:59.924Z,20.23
2019-05-23T04:52:27.201Z,23.18
2019-05-23T04:54:53.821Z,24.12
2019-05-23T04:57:21.938Z,26.70
2019-05-23T04:59:48.847Z,26.07
2019-05-23T05:02:25.491Z,25.60
2019-05-23T05:04:44.390Z,22.70
2019-05-23T05:07:10.891Z,25.35
2019-05-23T05:09:37.261Z,25.57
2019-05-23T05:12:05.301Z,27.10
2019-05-23T05:14:32.027Z,23.60
2019-05-23T05:16:58.811Z,21.45
2019-05-23T05:19:25.655Z,22.35
2019-05-23T05:21:52.069Z,23.18
2019-05-23T05:24:18.408Z,27.10
2019-05-23T05:26:44.867Z,25.65
2019-05-23T05:29:11.654Z,30.08
2019-05-23T05:31:38.125Z,25.12
2019-05-23T05:34:04.493Z,27.98
2019-05-23T05:36:30.932Z,17.98
2019-05-23T05:38:57.560Z,25.88
2019-05-23T05:41:24.637Z,27.65
2019-05-23T05:43:51.382Z,26.70
2019-05-23T05:46:18.275Z,30.02
2019-05-23T05:48:44.916Z,24.63
2019-05-23T05:51:11.269Z,25.90
2019-05-23T05:53:37.798Z,27.22
2019-05-23T05:56:04.222Z,18.92
2019-05-23T05:58:30.739Z,21.55
2019-05-23T06:01:02.180Z,23.62
2019-05-23T06:03:29.186Z,17.70
2019-05-23T06:05:57.355Z,22.10
2019-05-23T06:08:25.594Z,21.93
2019-05-23T06:10:51.995Z,18.95
2019-05-23T06:13:18.956Z,16.42
2019-05-23T06:15:45.453Z,21.82
2019-05-23T06:18:11.865Z,16.87
2019-05-23T06:20:42.148Z,17.95
2019-05-23T06:23:10.477Z,20.27
2019-05-23T06:25:37.499Z,16.90
2019-05-23T06:28:06.016Z,17.17
2019-05-23T06:30:33.011Z,15.15
2019-05-23T06:32:59.469Z,13.03
2019-05-23T06:35:26.931Z,15.48
2019-05-23T06:37:53.468Z,13.58
2019-05-23T06:40:20.145Z,14.80
2019-05-23T06:42:50.317Z,13.83
2019-05-23T06:45:15.653Z,14.05
2019-05-23T06:47:42.040Z,13.03
2019-05-23T06:50:18.098Z,12.60
2019-05-23T06:52:44.336Z,8.40
2019-05-23T06:55:10.857Z,9.83
2019-05-23T06:57:37.436Z,7.35
2019-05-23T07:00:07.326Z,7.03
2019-05-23T07:02:34.229Z,6.42
2019-05-23T07:05:00.672Z,5.10
2019-05-23T07:07:27.434Z,5.45
2019-05-23T07:09:54.096Z,4.78
2019-05-23T07:12:20.700Z,4.08
2019-05-23T07:14:47.065Z,3.80
2019-05-23T07:17:14.925Z,3.62
2019-05-23T07:19:41.616Z,4.30
2019-05-23T07:22:08.809Z,3.17
2019-05-23T07:24:35.552Z,3.33
2019-05-23T07:27:01.932Z,3.33
2019-05-23T07:29:28.505Z,4.35
2019-05-23T07:31:54.962Z,5.78
2019-05-23T07:34:21.621Z,4.22
2019-05-23T07:36:48.223Z,4.42
2019-05-23T07:39:15.621Z,4.00
2019-05-23T07:41:42.095Z,5.15
2019-05-23T07:44:09.271Z,4.20
2019-05-23T07:46:35.800Z,4.47
2019-05-23T07:49:02.839Z,5.90
2019-05-23T07:51:29.871Z,5.33
2019-05-23T07:54:07.159Z,4.35
2019-05-23T07:56:38.169Z,4.33
2019-05-23T07:59:05.094Z,4.67
2019-05-23T08:01:33.814Z,4.35
2019-05-23T08:04:19.338Z,5.60
2019-05-23T08:06:29.068Z,5.05
2019-05-23T08:08:57.364Z,6.55
2019-05-23T08:11:23.747Z,5.55
2019-05-23T08:13:50.671Z,4.87
2019-05-23T08:16:17.338Z,4.83
2019-05-23T08:18:43.572Z,4.50
2019-05-23T08:21:13.503Z,7.62
2019-05-23T08:23:39.931Z,5.62
2019-05-23T08:26:06.441Z,6.92
2019-05-23T08:28:32.883Z,6.40
2019-05-23T08:30:59.588Z,4.78
2019-05-23T08:33:26.298Z,5.28
2019-05-23T08:35:54.663Z,9.20
2019-05-23T08:38:21.566Z,4.37
2019-05-23T08:40:49.053Z,5.97
2019-05-23T08:43:15.626Z,4.92
2019-05-23T08:45:42.154Z,5.33
2019-05-23T08:48:09.572Z,5.47
2019-05-23T08:50:35.858Z,3.55
2019-05-23T08:53:02.549Z,5.35
2019-05-23T08:55:29.434Z,3.08
2019-05-23T08:57:56.492Z,4.22
2019-05-23T09:00:24.674Z,3.40
2019-05-23T09:02:52.802Z,5.08
2019-05-23T09:05:20.849Z,5.83
2019-05-23T09:07:47.577Z,5.47
2019-05-23T09:10:14.154Z,4.47
2019-05-23T09:12:40.558Z,6.55
2019-05-23T09:15:10.049Z,3.60
2019-05-23T09:17:52.261Z,5.30
2019-05-23T09:20:07.372Z,3.65
2019-05-23T09:22:33.699Z,4.85
2019-05-23T09:24:59.929Z,3.92
2019-05-23T09:27:26.336Z,5.03
2019-05-23T09:29:52.700Z,4.55
2019-05-23T09:32:19.318Z,5.50
2019-05-23T09:34:46.582Z,5.78
2019-05-23T09:37:13.357Z,5.05
2019-05-23T09:39:40.409Z,6.05
2019-05-23T09:42:07.052Z,4.15
2019-05-23T09:44:33.410Z,6.72
2019-05-23T09:46:59.969Z,5.40
2019-05-23T09:49:26.413Z,5.15
2019-05-23T09:51:57.471Z,4.17
2019-05-23T09:54:21.457Z,5.45
2019-05-23T09:56:47.972Z,3.52
2019-05-23T09:59:14.445Z,3.75
2019-05-23T10:01:41.126Z,3.87
2019-05-23T10:04:08.128Z,4.97
2019-05-23T10:06:34.821Z,4.08
2019-05-23T10:09:01.630Z,3.75
2019-05-23T10:11:27.929Z,5.10
2019-05-23T10:13:54.252Z,4.62
2019-05-23T10:16:20.896Z,4.47
2019-05-23T10:18:48.348Z,5.62
2019-05-23T10:21:14.736Z,3.90
2019-05-23T10:23:41.149Z,4.03
2019-05-23T10:26:07.794Z,4.72
2019-05-23T10:28:34.243Z,5.40
2019-05-23T10:31:00.931Z,5.72
2019-05-23T10:33:27.148Z,4.37
2019-05-23T10:36:00.487Z,4.28
2019-05-23T10:38:21.940Z,4.08
2019-05-23T10:40:48.219Z,3.77
2019-05-23T10:43:14.841Z,5.67
2019-05-23T10:45:41.265Z,4.62
2019-05-23T10:48:08.451Z,4.30
2019-05-23T10:50:44.391Z,4.75
2019-05-23T10:53:03.340Z,4.55
2019-05-23T10:55:30.330Z,5.00
2019-05-23T10:57:56.814Z,3.72
2019-05-23T11:00:25.460Z,4.35
2019-05-23T11:02:52.006Z,3.15
2019-05-23T11:05:18.852Z,4.75
2019-05-23T11:07:45.311Z,3.90
2019-05-23T11:10:12.495Z,3.87
2019-05-23T11:12:40.322Z,4.87
2019-05-23T11:15:07.074Z,4.90
2019-05-23T11:17:33.521Z,5.03
2019-05-23T11:20:00.083Z,5.08
2019-05-23T11:22:27.014Z,3.47
2019-05-23T11:24:53.497Z,3.98
2019-05-23T11:27:21.173Z,3.87
2019-05-23T11:29:47.904Z,5.90
2019-05-23T11:32:19.252Z,5.15
2019-05-23T11:34:43.371Z,4.92
2019-05-23T11:37:09.840Z,5.10
2019-05-23T11:39:42.000Z,4.25
2019-05-23T11:42:05.435Z,5.17
2019-05-23T11:44:31.741Z,5.35
2019-05-23T11:46:58.601Z,4.85
2019-05-23T11:49:25.135Z,4.92
2019-05-23T11:51:51.621Z,5.08
2019-05-23T11:54:18.967Z,6.62
2019-05-23T11:56:45.637Z,5.65
2019-05-23T11:59:12.426Z,6.00
2019-05-23T12:01:40.991Z,6.00
2019-05-23T12:04:12.068Z,7.75
2019-05-23T12:06:54.505Z,5.42
2019-05-23T12:09:08.722Z,3.77
2019-05-23T12:11:38.130Z,4.47
2019-05-23T12:14:04.306Z,5.92
2019-05-23T12:16:30.852Z,4.85
2019-05-23T12:18:57.374Z,6.58
2019-05-23T12:21:24.826Z,5.10
2019-05-23T12:23:51.724Z,3.52
2019-05-23T12:26:18.121Z,4.70
2019-05-23T12:28:44.495Z,4.03
2019-05-23T12:31:10.785Z,5.35
2019-05-23T12:33:37.012Z,5.53
2019-05-23T12:36:03.965Z,4.45
2019-05-23T12:38:30.239Z,3.20
2019-05-23T12:40:56.688Z,4.62
2019-05-23T12:43:22.947Z,4.58
2019-05-23T12:45:49.481Z,6.62
2019-05-23T12:48:36.078Z,5.10
2019-05-23T12:51:04.488Z,5.42
2019-05-23T12:53:32.071Z,6.53
2019-05-23T12:55:58.504Z,5.72
2019-05-23T12:58:25.064Z,5.45
2019-05-23T13:00:53.451Z,6.10
2019-05-23T13:03:20.597Z,4.58
2019-05-23T13:05:47.653Z,7.05
2019-05-23T13:08:14.251Z,7.90
2019-05-23T13:10:40.838Z,5.83
2019-05-23T13:13:07.469Z,6.53
2019-05-23T13:15:34.712Z,4.67
2019-05-23T13:18:01.621Z,5.33
2019-05-23T13:20:28.132Z,5.42
2019-05-23T13:22:54.535Z,4.28
2019-05-23T13:25:24.830Z,3.98
2019-05-23T13:27:51.362Z,5.22
2019-05-23T13:30:18.870Z,4.80
2019-05-23T13:32:45.458Z,4.65
2019-05-23T13:35:12.236Z,4.50
2019-05-23T13:40:30.539Z,4.58
2019-05-23T13:42:57.400Z,5.03
2019-05-23T13:45:24.051Z,4.95
2019-05-23T13:47:51.103Z,5.22
2019-05-23T13:50:18.471Z,4.37
2019-05-23T13:52:46.441Z,5.30
2019-05-23T13:55:13.154Z,5.15
2019-05-23T13:57:39.595Z,4.25
2019-05-23T14:00:07.855Z,7.17
2019-05-23T14:02:34.455Z,5.47
2019-05-23T14:05:00.936Z,5.20
2019-05-23T14:07:27.677Z,6.20
2019-05-23T14:09:54.338Z,4.67
2019-05-23T14:12:21.866Z,5.30
2019-05-23T14:14:48.501Z,5.97
2019-05-23T14:17:33.292Z,4.78
2019-05-23T14:19:59.686Z,3.83
2019-05-23T14:22:26.896Z,4.70
2019-05-23T14:24:53.413Z,3.55
2019-05-23T14:27:38.531Z,4.70
2019-05-23T14:30:26.585Z,4.95
2019-05-23T14:32:54.824Z,6.10
2019-05-23T14:35:23.075Z,3.85
2019-05-23T14:37:51.470Z,4.92
2019-05-23T14:40:17.904Z,4.53
2019-05-23T14:43:01.232Z,5.37
2019-05-23T14:45:35.808Z,4.28
2019-05-23T14:48:21.065Z,4.78
2019-05-23T14:51:07.413Z,4.80
2019-05-23T14:53:44.874Z,4.87
2019-05-23T14:56:11.527Z,4.70
2019-05-23T14:58:38.095Z,5.22
2019-05-23T15:01:06.696Z,7.97
2019-05-23T15:03:35.582Z,4.83
2019-05-23T15:06:01.538Z,5.65
2019-05-23T15:08:28.268Z,3.52
2019-05-23T15:10:54.639Z,4.35
2019-05-23T15:13:21.051Z,4.62
2019-05-23T15:15:47.431Z,4.92
2019-05-23T15:18:14.167Z,5.15
2019-05-23T15:20:40.661Z,4.15
2019-05-23T15:23:07.018Z,4.45
2019-05-23T15:25:33.314Z,5.85
2019-05-23T15:28:00.440Z,4.17
2019-05-23T15:30:26.985Z,5.35
2019-05-23T15:32:53.309Z,3.25
2019-05-23T15:35:20.031Z,5.17
2019-05-23T15:37:46.495Z,3.90
2019-05-23T15:40:13.068Z,2.83
2019-05-23T15:42:39.389Z,3.90
2019-05-23T15:45:06.666Z,3.47
2019-05-23T15:47:34.942Z,3.92
2019-05-23T15:50:08.415Z,4.42
2019-05-23T15:52:41.265Z,3.42
2019-05-23T15:55:18.781Z,2.80
2019-05-23T15:57:47.164Z,3.50
2019-05-23T16:00:16.021Z,4.75
2019-05-23T16:02:46.964Z,6.92
2019-05-23T16:05:15.060Z,5.15
2019-05-23T16:07:41.742Z,5.65
2019-05-23T16:10:08.661Z,5.05
2019-05-23T16:12:34.919Z,4.80
2019-05-23T16:15:01.386Z,5.40
2019-05-23T16:17:28.532Z,3.47
2019-05-23T16:19:55.308Z,4.53
2019-05-23T16:22:21.691Z,4.05
2019-05-23T16:24:48.038Z,4.45
2019-05-23T16:27:14.434Z,3.52
2019-05-23T16:29:40.985Z,3.40
2019-05-23T16:32:08.889Z,3.72
2019-05-23T16:34:38.778Z,4.58
2019-05-23T16:37:05.142Z,3.83
2019-05-23T16:39:46.052Z,3.40
2019-05-23T16:42:00.658Z,3.47
2019-05-23T16:44:27.134Z,5.05
2019-05-23T16:46:53.969Z,4.22
2019-05-23T16:49:20.553Z,3.80
2019-05-23T16:51:47.096Z,2.20
2019-05-23T16:54:14.458Z,4.95
2019-05-23T16:57:01.213Z,3.05
2019-05-23T16:59:38.270Z,3.08
2019-05-23T17:02:08.499Z,3.20
2019-05-23T17:05:09.065Z,3.50
2019-05-23T17:07:29.060Z,3.87
2019-05-23T17:10:08.591Z,6.37
2019-05-23T17:12:31.216Z,3.40
2019-05-23T17:15:11.958Z,4.42
2019-05-23T17:18:01.459Z,3.12
2019-05-23T17:20:24.934Z,3.90
2019-05-23T17:23:11.302Z,3.85
2019-05-23T17:25:42.204Z,2.12
2019-05-23T17:28:11.414Z,4.45
2019-05-23T17:30:40.081Z,2.95
2019-05-23T17:33:07.614Z,3.05
2019-05-23T17:35:35.411Z,4.45
2019-05-23T17:38:02.012Z,2.60
2019-05-23T17:40:29.030Z,2.83
2019-05-23T17:42:55.943Z,3.87
2019-05-23T17:45:22.775Z,2.95
2019-05-23T17:47:49.072Z,2.85
2019-05-23T17:50:15.713Z,3.87
2019-05-23T17:52:42.182Z,3.55
2019-05-23T17:55:09.107Z,3.98
2019-05-23T17:57:35.433Z,3.15
2019-05-23T18:00:04.095Z,4.22
2019-05-23T18:02:30.749Z,4.60
2019-05-23T18:04:57.098Z,4.30
2019-05-23T18:07:23.929Z,4.08
2019-05-23T18:09:51.313Z,4.40
2019-05-23T18:12:17.963Z,3.77
2019-05-23T18:14:44.239Z,2.80
2019-05-23T18:17:11.393Z,5.72
2019-05-23T18:19:38.141Z,4.85
2019-05-23T18:22:05.115Z,3.22
2019-05-23T18:24:31.829Z,3.70
2019-05-23T18:26:58.432Z,4.42
2019-05-23T18:29:25.922Z,4.22
2019-05-23T18:31:52.365Z,3.00
2019-05-23T18:34:19.408Z,3.62
2019-05-23T18:36:46.289Z,2.75
2019-05-23T18:39:16.391Z,4.55
2019-05-23T18:41:43.427Z,3.87
2019-05-23T18:44:10.818Z,3.37
2019-05-23T18:46:39.046Z,4.47
2019-05-23T18:49:07.524Z,4.12
2019-05-23T18:51:33.797Z,5.10
2019-05-23T18:54:00.174Z,4.83
2019-05-23T18:56:26.587Z,4.92
2019-05-23T18:58:53.038Z,6.15
2019-05-23T19:01:21.460Z,5.12
2019-05-23T19:03:47.728Z,3.67
2019-05-23T19:06:14.083Z,3.70
2019-05-23T19:08:40.893Z,3.87
2019-05-23T19:11:20.366Z,4.40
2019-05-23T19:13:35.708Z,4.70
2019-05-23T19:16:02.141Z,3.80
2019-05-23T19:18:29.287Z,4.83
2019-05-23T19:20:56.250Z,5.55
2019-05-23T19:23:23.896Z,3.90
2019-05-23T19:25:50.277Z,5.50
2019-05-23T19:28:17.270Z,6.08
2019-05-23T19:30:44.219Z,5.87
2019-05-23T19:33:11.583Z,6.42
2019-05-23T19:35:38.116Z,5.97
2019-05-23T19:38:06.529Z,5.55
2019-05-23T19:40:34.485Z,5.60
2019-05-23T19:43:04.079Z,6.47
2019-05-23T19:45:31.245Z,4.53
2019-05-23T19:47:57.529Z,4.90
2019-05-23T19:50:24.605Z,6.55
2019-05-23T19:52:51.007Z,6.92
2019-05-23T19:55:19.275Z,4.25
2019-05-23T19:57:45.946Z,4.05
2019-05-23T20:00:14.821Z,6.30
2019-05-23T20:02:45.987Z,5.25
2019-05-23T20:05:31.166Z,6.20
2019-05-23T20:07:57.932Z,4.03
2019-05-23T20:10:24.976Z,3.87
2019-05-23T20:12:55.138Z,3.92
2019-05-23T20:15:23.089Z,7.17
2019-05-23T20:17:51.683Z,5.97
2019-05-23T20:20:17.993Z,5.87
2019-05-23T20:22:44.378Z,4.15
2019-05-23T20:25:11.912Z,4.53
2019-05-23T20:27:38.689Z,4.30
2019-05-23T20:30:07.189Z,4.30
2019-05-23T20:32:34.008Z,7.12
2019-05-23T20:35:00.297Z,5.12
2019-05-23T20:37:27.205Z,5.67
2019-05-23T20:39:53.861Z,7.58
2019-05-23T20:42:20.345Z,6.00
2019-05-23T20:44:46.699Z,4.75
2019-05-23T20:47:13.016Z,4.67
2019-05-23T20:49:39.477Z,5.28
2019-05-23T20:52:06.409Z,6.95
2019-05-23T20:54:33.707Z,4.40
2019-05-23T20:57:01.044Z,5.92
2019-05-23T20:59:27.362Z,5.72
2019-05-23T21:01:54.407Z,5.90
2019-05-23T21:04:21.064Z,4.28
2019-05-23T21:06:47.530Z,5.78
2019-05-23T21:09:15.943Z,4.65
2019-05-23T21:11:41.886Z,3.98
2019-05-23T21:14:08.361Z,4.30
2019-05-23T21:16:34.737Z,5.92
2019-05-23T21:19:01.198Z,4.62
2019-05-23T21:21:27.556Z,4.62
2019-05-23T21:23:56.846Z,4.17
2019-05-23T21:26:22.292Z,6.60
2019-05-23T21:28:48.824Z,3.62
2019-05-23T21:31:17.055Z,5.47
2019-05-23T21:33:43.482Z,5.20
2019-05-23T21:36:09.726Z,4.42
2019-05-23T21:38:36.174Z,5.55
2019-05-23T21:41:03.530Z,5.08
2019-05-23T21:43:30.161Z,3.98
2019-05-23T21:45:56.739Z,4.70
2019-05-23T21:48:23.245Z,5.65
2019-05-23T21:50:49.784Z,4.80
2019-05-23T21:53:16.226Z,5.08
2019-05-23T21:55:42.896Z,5.58
2019-05-23T21:58:12.050Z,4.35
2019-05-23T22:01:05.311Z,4.50
2019-05-23T22:03:34.573Z,4.70
2019-05-23T22:06:00.922Z,5.17
2019-05-23T22:08:27.907Z,4.95
2019-05-23T22:10:54.278Z,6.12
2019-05-23T22:13:20.659Z,5.83
2019-05-23T22:15:47.124Z,4.40
2019-05-23T22:18:14.315Z,5.40
2019-05-23T22:20:41.169Z,7.55
2019-05-23T22:23:07.897Z,5.55
2019-05-23T22:25:34.420Z,5.72
2019-05-23T22:28:00.774Z,5.45
2019-05-23T22:30:27.353Z,6.00
2019-05-23T22:33:15.044Z,6.10
2019-05-23T22:35:41.796Z,5.53
2019-05-23T22:38:08.695Z,4.70
2019-05-23T22:40:38.386Z,5.47
2019-05-23T22:43:03.371Z,4.78
2019-05-23T22:45:30.309Z,5.20
2019-05-23T22:47:56.776Z,5.10
2019-05-23T22:50:23.040Z,5.80
2019-05-23T22:52:49.309Z,4.35
2019-05-23T22:55:15.666Z,6.92
2019-05-23T22:57:41.921Z,6.25
2019-05-23T23:00:08.712Z,7.08
2019-05-23T23:02:35.045Z,6.40
2019-05-23T23:05:01.503Z,6.37
2019-05-23T23:07:28.427Z,6.10
2019-05-23T23:09:54.648Z,5.62
2019-05-23T23:12:21.015Z,8.58
2019-05-23T23:14:47.290Z,5.80
2019-05-23T23:17:13.760Z,7.28
2019-05-23T23:19:40.115Z,6.42
2019-05-23T23:22:07.777Z,8.80
2019-05-23T23:24:34.156Z,7.45
2019-05-23T23:27:00.401Z,9.43
2019-05-23T23:29:26.728Z,6.60
2019-05-23T23:31:52.957Z,8.68
2019-05-23T23:34:19.232Z,6.55
2019-05-23T23:36:45.517Z,8.95
2019-05-23T23:39:11.891Z,7.67
2019-05-23T23:41:38.324Z,6.83
2019-05-23T23:44:05.601Z,9.38
2019-05-23T23:46:50.707Z,8.85
2019-05-23T23:49:35.480Z,8.13
2019-05-23T23:52:20.372Z,7.22
2019-05-23T23:55:05.620Z,8.60
2019-05-23T23:57:50.360Z,10.40
